Time;durP1;ratioP1;P1;durP2;ratioP2;P2;SDS_P1;SDS_P2;PMS_P1;PMS_P2;Temp;Humidity;BMP_temperature;BMP_pressure;BME280_temperature;BME280_humidity;BME280_pressure;Samples;Min_cycle;Max_cycle;Signal;HPM_P1;HPM_P2
2023/12/02 00:01:54;;;;;;;7.82;4.15;;;-0.30;99.90;;;;;;5014364;28;20026;-72
2023/12/02 00:04:20;;;;;;;3.08;1.58;;;-0.30;99.90;;;;;;5008604;28;20108;-71
2023/12/02 00:06:45;;;;;;;4.00;2.75;;;-0.20;99.90;;;;;;5012286;28;20029;-71
2023/12/02 00:09:11;;;;;;;2.90;2.70;;;-0.20;99.90;;;;;;5007943;28;20478;-71
2023/12/02 00:11:37;;;;;;;3.90;2.28;;;-0.20;99.90;;;;;;5019181;28;20065;-72
2023/12/02 00:14:02;;;;;;;7.47;3.95;;;-0.10;99.90;;;;;;5013593;28;20030;-71
2023/12/02 00:16:28;;;;;;;3.05;2.55;;;-0.10;99.90;;;;;;5006047;28;20034;-71
2023/12/02 00:18:54;;;;;;;5.80;2.15;;;0.00;99.90;;;;;;5019121;28;20061;-71
2023/12/02 00:21:20;;;;;;;3.95;3.58;;;0.00;99.90;;;;;;5005291;28;20034;-71
2023/12/02 00:23:46;;;;;;;3.45;2.50;;;0.10;99.90;;;;;;5018743;28;20056;-70
2023/12/02 00:26:11;;;;;;;2.13;1.92;;;0.00;99.90;;;;;;5001192;28;20555;-71
2023/12/02 00:28:37;;;;;;;4.18;3.80;;;0.00;99.90;;;;;;5020078;28;20040;-71
2023/12/02 00:31:03;;;;;;;1.52;1.45;;;0.10;99.90;;;;;;5013641;28;20033;-72
2023/12/02 00:33:29;;;;;;;3.65;2.45;;;0.10;99.90;;;;;;5016660;28;20138;-70
2023/12/02 00:35:56;;;;;;;4.15;2.38;;;0.10;99.90;;;;;;5005351;28;20145;-72
2023/12/02 00:38:21;;;;;;;8.70;3.78;;;0.00;99.90;;;;;;5020123;28;20033;-72
2023/12/02 00:40:47;;;;;;;3.70;2.92;;;0.00;99.90;;;;;;5001958;28;20032;-72
2023/12/02 00:43:12;;;;;;;2.80;2.63;;;0.00;99.90;;;;;;5017279;28;20088;-71
2023/12/02 00:45:38;;;;;;;2.72;2.55;;;0.00;99.90;;;;;;5009981;28;20068;-72
2023/12/02 00:48:04;;;;;;;6.47;4.03;;;0.10;99.90;;;;;;5017396;28;20034;-70
2023/12/02 00:50:29;;;;;;;2.95;2.75;;;0.10;99.90;;;;;;5009832;28;20120;-71
2023/12/02 00:52:56;;;;;;;3.83;2.72;;;0.10;99.90;;;;;;5016232;28;20468;-71
2023/12/02 00:55:22;;;;;;;1.52;1.42;;;0.10;99.90;;;;;;5014150;28;20032;-71
2023/12/02 00:57:48;;;;;;;2.80;1.83;;;0.00;99.90;;;;;;5008171;28;20369;-71
2023/12/02 01:00:15;;;;;;;6.03;3.95;;;0.00;99.90;;;;;;5014968;28;20025;-71
2023/12/02 01:02:41;;;;;;;2.05;1.85;;;0.00;99.90;;;;;;5007519;28;20449;-71
2023/12/02 01:05:08;;;;;;;3.08;2.67;;;0.00;99.90;;;;;;5015734;28;20276;-70
2023/12/02 01:07:33;;;;;;;3.63;3.10;;;0.00;99.90;;;;;;5001424;28;20088;-71
2023/12/02 01:09:59;;;;;;;3.88;2.97;;;0.00;99.90;;;;;;5018593;28;20058;-72
2023/12/02 01:12:25;;;;;;;7.80;3.85;;;0.00;99.90;;;;;;5007209;28;20103;-71
2023/12/02 01:14:50;;;;;;;7.40;4.22;;;0.00;99.90;;;;;;5014997;28;20033;-71
2023/12/02 01:17:16;;;;;;;7.60;4.32;;;0.10;99.90;;;;;;5006096;28;20037;-71
2023/12/02 01:19:44;;;;;;;4.22;3.10;;;0.10;99.90;;;;;;5017779;28;20030;-72
2023/12/02 01:22:09;;;;;;;5.47;4.55;;;0.10;99.90;;;;;;5002536;28;20079;-70
2023/12/02 01:24:35;;;;;;;3.90;3.08;;;0.00;99.90;;;;;;5033763;28;20098;-71
2023/12/02 01:27:01;;;;;;;10.18;3.20;;;0.10;99.90;;;;;;5015028;28;21104;-72
2023/12/02 01:29:26;;;;;;;4.03;2.22;;;0.10;99.90;;;;;;5019649;28;20026;-71
2023/12/02 01:31:52;;;;;;;5.75;3.45;;;0.10;99.90;;;;;;5008150;28;20421;-72
2023/12/02 01:34:17;;;;;;;3.65;3.25;;;0.10;99.90;;;;;;5010389;28;20050;-71
2023/12/02 01:36:45;;;;;;;2.35;2.20;;;0.20;99.90;;;;;;5014582;28;20062;-71
2023/12/02 01:39:12;;;;;;;2.67;2.38;;;0.20;99.90;;;;;;5006423;28;20648;-71
2023/12/02 01:41:39;;;;;;;7.40;4.13;;;0.10;99.90;;;;;;5011670;28;20504;-71
2023/12/02 01:44:04;;;;;;;2.55;2.00;;;0.10;99.90;;;;;;4999927;28;20039;-70
2023/12/02 01:46:30;;;;;;;3.40;3.13;;;0.20;99.90;;;;;;5012582;28;20512;-71
2023/12/02 01:48:58;;;;;;;3.38;3.08;;;0.20;99.90;;;;;;4999646;28;20410;-71
2023/12/02 01:51:24;;;;;;;6.00;3.35;;;0.20;99.90;;;;;;5016750;28;20063;-71
2023/12/02 01:53:50;;;;;;;3.22;2.60;;;0.20;99.90;;;;;;4998774;28;20037;-72
2023/12/02 01:56:18;;;;;;;4.43;2.90;;;0.20;99.90;;;;;;5012599;28;20068;-70
2023/12/02 01:58:44;;;;;;;4.15;3.65;;;0.10;99.90;;;;;;5001462;28;20037;-71
2023/12/02 02:01:09;;;;;;;2.42;1.88;;;0.10;99.90;;;;;;5010070;28;20544;-71
2023/12/02 02:03:35;;;;;;;5.38;4.85;;;0.10;99.90;;;;;;5007130;28;20072;-71
2023/12/02 02:06:01;;;;;;;4.82;2.85;;;0.10;99.90;;;;;;5016312;28;20190;-71
2023/12/02 02:08:27;;;;;;;9.20;4.25;;;0.10;99.90;;;;;;4988589;28;20144;-71
2023/12/02 02:10:56;;;;;;;5.78;3.92;;;0.20;99.90;;;;;;5010561;28;20033;-71
2023/12/02 02:13:21;;;;;;;6.83;4.43;;;0.20;99.90;;;;;;4998975;28;20128;-71
2023/12/02 02:15:47;;;;;;;4.95;3.70;;;0.30;99.90;;;;;;5016138;28;20286;-71
2023/12/02 02:18:13;;;;;;;7.43;3.75;;;0.30;99.90;;;;;;5002563;28;20033;-71
2023/12/02 02:20:38;;;;;;;5.05;3.40;;;0.30;99.90;;;;;;4999887;28;20118;-71
2023/12/02 02:23:04;;;;;;;11.70;4.85;;;0.30;99.90;;;;;;5016107;28;20079;-70
2023/12/02 02:25:30;;;;;;;2.92;2.72;;;0.30;99.90;;;;;;5001825;28;20033;-70
2023/12/02 02:27:56;;;;;;;6.38;3.55;;;0.30;99.90;;;;;;5009376;28;20042;-71
2023/12/02 02:30:24;;;;;;;5.43;2.05;;;0.30;99.90;;;;;;5002498;28;20048;-71
2023/12/02 02:32:49;;;;;;;4.68;3.25;;;0.20;99.90;;;;;;5013371;28;20033;-71
2023/12/02 02:35:15;;;;;;;8.07;2.45;;;0.20;99.90;;;;;;4999278;28;20477;-72
2023/12/02 02:37:41;;;;;;;5.55;3.63;;;0.20;99.90;;;;;;5015652;28;20044;-70
2023/12/02 02:40:07;;;;;;;7.50;3.85;;;0.10;99.90;;;;;;5005373;28;20036;-72
2023/12/02 02:42:33;;;;;;;3.85;3.53;;;0.10;99.90;;;;;;5018648;28;20075;-72
2023/12/02 02:44:58;;;;;;;3.72;3.38;;;0.10;99.90;;;;;;5006287;28;20041;-71
2023/12/02 02:47:24;;;;;;;3.33;2.97;;;0.10;99.90;;;;;;5013969;28;20132;-71
2023/12/02 02:49:50;;;;;;;3.80;2.75;;;0.10;99.90;;;;;;5003279;28;20037;-71
2023/12/02 02:52:15;;;;;;;3.05;1.95;;;0.10;99.90;;;;;;5016551;28;20037;-72
2023/12/02 02:54:41;;;;;;;4.38;3.03;;;0.10;99.90;;;;;;5000694;28;20037;-71
2023/12/02 02:57:06;;;;;;;6.05;2.25;;;0.00;99.90;;;;;;5014100;28;20370;-71
2023/12/02 02:59:32;;;;;;;8.60;4.13;;;0.00;99.90;;;;;;5015658;28;20038;-71
2023/12/02 03:01:58;;;;;;;1.63;1.52;;;0.00;99.90;;;;;;4992286;28;20276;-71
2023/12/02 03:04:23;;;;;;;9.70;4.38;;;0.00;99.90;;;;;;5017962;28;20037;-72
2023/12/02 03:06:49;;;;;;;5.00;3.83;;;0.10;99.90;;;;;;5001073;28;20155;-71
2023/12/02 03:09:14;;;;;;;2.88;2.67;;;0.10;99.90;;;;;;5010437;28;20045;-71
2023/12/02 03:11:40;;;;;;;7.93;3.83;;;0.10;99.90;;;;;;4999361;28;20037;-70
2023/12/02 03:14:06;;;;;;;5.22;3.03;;;0.10;99.90;;;;;;5011347;28;20139;-72
2023/12/02 03:16:32;;;;;;;6.18;2.45;;;0.10;99.90;;;;;;4998765;28;20353;-71
2023/12/02 03:18:58;;;;;;;5.82;3.53;;;0.10;99.90;;;;;;5014141;28;21681;-72
2023/12/02 03:21:23;;;;;;;3.50;3.17;;;0.10;99.90;;;;;;5000168;28;20056;-72
2023/12/02 03:23:49;;;;;;;12.60;6.10;;;0.00;99.90;;;;;;5017388;28;20120;-71
2023/12/02 03:26:16;;;;;;;3.38;3.08;;;0.00;99.90;;;;;;5003182;28;20080;-71
2023/12/02 03:28:42;;;;;;;3.90;3.40;;;0.00;99.90;;;;;;5008362;28;20832;-72
2023/12/02 03:31:09;;;;;;;4.15;3.38;;;0.00;99.90;;;;;;4999858;28;20160;-70
2023/12/02 03:33:34;;;;;;;3.55;2.88;;;0.00;99.90;;;;;;5015480;28;20076;-70
2023/12/02 03:36:01;;;;;;;7.72;3.15;;;0.00;99.90;;;;;;5003489;28;21391;-71
2023/12/02 03:38:26;;;;;;;4.72;3.97;;;0.00;99.90;;;;;;5014167;28;20034;-71
2023/12/02 03:40:52;;;;;;;5.28;2.40;;;0.00;99.90;;;;;;5012230;28;20805;-71
2023/12/02 03:43:18;;;;;;;3.08;2.40;;;0.00;99.90;;;;;;4997473;28;20057;-71
2023/12/02 03:45:43;;;;;;;4.68;3.63;;;0.00;99.90;;;;;;5016529;28;20516;-71
2023/12/02 03:48:09;;;;;;;3.47;2.45;;;-0.10;99.90;;;;;;4998731;28;20037;-71
2023/12/02 03:50:35;;;;;;;7.60;4.60;;;0.00;99.90;;;;;;5018318;28;20030;-72
2023/12/02 03:53:00;;;;;;;3.35;3.05;;;0.00;99.90;;;;;;5006510;28;20391;-71
2023/12/02 03:55:26;;;;;;;2.03;1.42;;;0.00;99.90;;;;;;5014137;28;20061;-71
2023/12/02 03:57:51;;;;;;;3.78;2.45;;;0.00;99.90;;;;;;5006365;28;20056;-71
2023/12/02 04:00:19;;;;;;;6.57;2.95;;;0.10;99.90;;;;;;5015529;28;20081;-71
2023/12/02 04:02:45;;;;;;;2.17;2.05;;;0.00;99.90;;;;;;5001478;28;20355;-71
2023/12/02 04:05:14;;;;;;;8.27;4.22;;;0.00;99.90;;;;;;5014787;28;20033;-72
2023/12/02 04:07:41;;;;;;;;;;;0.00;99.90;;;;;;5015658;28;20080;-71
2023/12/02 04:10:07;;;;;;;2.47;2.28;;;0.10;99.90;;;;;;5031800;28;19932;-71
2023/12/02 04:12:34;;;;;;;4.60;2.50;;;0.00;99.90;;;;;;5003144;28;20037;-71
2023/12/02 04:15:00;;;;;;;5.80;3.17;;;0.00;99.90;;;;;;5013502;28;20523;-71
2023/12/02 04:17:26;;;;;;;2.50;2.30;;;0.00;99.90;;;;;;5002300;28;20045;-71
2023/12/02 04:19:52;;;;;;;5.05;2.55;;;0.00;99.90;;;;;;5016335;28;20034;-71
2023/12/02 04:22:19;;;;;;;3.70;2.42;;;0.00;99.90;;;;;;5016521;28;20033;-71
2023/12/02 04:24:46;;;;;;;2.42;2.15;;;0.10;99.90;;;;;;5007560;28;20406;-71
2023/12/02 04:27:12;;;;;;;2.38;2.17;;;0.10;99.90;;;;;;5017860;28;20072;-72
2023/12/02 04:29:41;;;;;;;3.03;1.40;;;0.10;99.90;;;;;;5006784;28;20455;-71
2023/12/02 04:32:08;;;;;;;1.23;1.17;;;0.10;99.90;;;;;;5020414;28;20478;-71
2023/12/02 04:34:34;;;;;;;3.60;2.90;;;0.10;99.90;;;;;;5000063;28;20050;-72
2023/12/02 04:37:00;;;;;;;8.18;4.10;;;0.10;99.90;;;;;;5016986;28;20037;-72
2023/12/02 04:39:25;;;;;;;3.55;2.75;;;0.10;99.90;;;;;;5008662;28;20513;-72
2023/12/02 04:41:51;;;;;;;4.78;3.10;;;0.10;99.90;;;;;;5017348;28;20047;-72
2023/12/02 04:44:17;;;;;;;3.13;1.92;;;0.10;99.90;;;;;;5007378;28;20409;-72
2023/12/02 04:46:43;;;;;;;3.38;3.03;;;0.10;99.90;;;;;;5019186;28;20062;-72
2023/12/02 04:49:09;;;;;;;4.95;2.38;;;0.10;99.90;;;;;;5004089;28;20048;-72
2023/12/02 04:51:34;;;;;;;4.75;3.70;;;0.10;99.90;;;;;;5024100;28;20454;-71
2023/12/02 04:54:00;;;;;;;4.82;3.67;;;0.00;99.90;;;;;;5008871;28;20029;-71
2023/12/02 04:56:25;;;;;;;7.55;3.17;;;0.00;99.90;;;;;;5017097;28;20037;-72
2023/12/02 04:58:51;;;;;;;6.95;3.03;;;0.00;99.90;;;;;;5009778;28;20086;-70
2023/12/02 05:01:17;;;;;;;6.70;3.17;;;-0.10;99.90;;;;;;5018604;28;20037;-72
2023/12/02 05:03:43;;;;;;;2.17;1.75;;;-0.10;99.90;;;;;;5017104;28;20107;-71
2023/12/02 05:06:14;;;;;;;6.95;3.80;;;-0.10;99.90;;;;;;5004203;28;20120;-71
2023/12/02 05:08:40;;;;;;;3.20;1.92;;;-0.20;99.90;;;;;;5010442;28;20037;-71
2023/12/02 05:11:07;;;;;;;2.95;2.75;;;-0.20;99.90;;;;;;5005054;28;20578;-71
2023/12/02 05:13:32;;;;;;;1.60;1.50;;;-0.20;99.90;;;;;;5017664;28;20052;-72
2023/12/02 05:15:58;;;;;;;2.47;2.28;;;-0.20;99.90;;;;;;4999688;28;20033;-71
2023/12/02 05:18:23;;;;;;;2.13;2.03;;;-0.10;99.90;;;;;;5018176;28;20037;-71
2023/12/02 05:20:49;;;;;;;2.90;2.67;;;-0.20;99.90;;;;;;5005097;28;21249;-71
2023/12/02 05:23:15;;;;;;;6.38;2.38;;;-0.20;99.90;;;;;;5014577;28;20505;-71
2023/12/02 05:25:41;;;;;;;4.90;2.85;;;-0.20;99.90;;;;;;5007639;28;20463;-71
2023/12/02 05:28:07;;;;;;;2.40;1.67;;;-0.20;99.90;;;;;;5019270;28;20141;-71
2023/12/02 05:30:34;;;;;;;1.83;1.23;;;-0.20;99.90;;;;;;5006392;28;20502;-71
2023/12/02 05:32:59;;;;;;;2.13;1.98;;;-0.20;99.90;;;;;;5019859;28;20246;-71
2023/12/02 05:35:25;;;;;;;2.83;2.72;;;-0.20;99.90;;;;;;4997821;28;20493;-71
2023/12/02 05:37:51;;;;;;;3.60;2.08;;;-0.20;99.90;;;;;;5013462;28;20038;-71
2023/12/02 05:40:18;;;;;;;2.50;1.75;;;-0.30;99.90;;;;;;5001162;28;20125;-71
2023/12/02 05:42:44;;;;;;;5.45;2.85;;;-0.20;99.90;;;;;;5016129;28;20441;-72
2023/12/02 05:45:10;;;;;;;3.50;2.15;;;-0.30;99.90;;;;;;5013505;28;20029;-72
2023/12/02 05:47:35;;;;;;;0.77;0.77;;;-0.20;99.90;;;;;;5016295;28;20021;-72
2023/12/02 05:50:02;;;;;;;3.10;2.90;;;-0.20;99.90;;;;;;5019669;28;20119;-71
2023/12/02 05:52:28;;;;;;;3.70;2.63;;;-0.20;99.90;;;;;;5008979;28;20037;-71
2023/12/02 05:54:55;;;;;;;2.10;2.00;;;-0.20;99.90;;;;;;5016196;28;20081;-71
2023/12/02 05:57:20;;;;;;;1.98;1.85;;;-0.20;99.90;;;;;;5006669;28;20040;-71
2023/12/02 05:59:46;;;;;;;1.10;1.05;;;-0.10;99.90;;;;;;5022816;28;21030;-71
2023/12/02 06:02:12;;;;;;;3.20;2.38;;;-0.10;99.90;;;;;;5007117;28;20045;-72
2023/12/02 06:04:37;;;;;;;4.63;1.77;;;-0.10;99.90;;;;;;5016439;28;20099;-71
2023/12/02 06:07:03;;;;;;;11.07;3.88;;;0.00;99.90;;;;;;5007376;28;20026;-71
2023/12/02 06:09:29;;;;;;;4.50;2.85;;;0.00;99.90;;;;;;5010616;28;20104;-71
2023/12/02 06:11:54;;;;;;;6.35;3.45;;;0.00;99.90;;;;;;5006598;28;20485;-71
2023/12/02 06:14:20;;;;;;;8.88;2.83;;;0.00;99.90;;;;;;5015840;28;20113;-71
2023/12/02 06:16:46;;;;;;;2.83;2.53;;;-0.10;99.90;;;;;;5002835;28;20033;-71
2023/12/02 06:19:12;;;;;;;3.30;1.75;;;0.00;99.90;;;;;;5021062;28;20040;-71
2023/12/02 06:21:37;;;;;;;2.38;2.17;;;-0.10;99.90;;;;;;5004960;28;20740;-71
2023/12/02 06:24:04;;;;;;;2.97;2.28;;;-0.10;99.90;;;;;;5022326;28;20021;-72
2023/12/02 06:26:29;;;;;;;3.15;2.85;;;-0.10;99.90;;;;;;5011278;28;20139;-71
2023/12/02 06:28:55;;;;;;;4.30;2.83;;;-0.10;99.90;;;;;;5008126;28;20370;-72
2023/12/02 06:31:21;;;;;;;1.75;1.60;;;-0.10;99.90;;;;;;5018089;28;20074;-70
2023/12/02 06:33:47;;;;;;;3.03;2.05;;;-0.10;99.90;;;;;;5011222;28;20152;-70
2023/12/02 06:36:13;;;;;;;6.53;2.65;;;-0.10;99.90;;;;;;5012370;28;20095;-71
2023/12/02 06:38:38;;;;;;;3.28;2.97;;;-0.10;99.90;;;;;;5005713;28;20051;-70
2023/12/02 06:41:04;;;;;;;1.67;1.58;;;-0.20;99.90;;;;;;5012654;28;20349;-70
2023/12/02 06:43:30;;;;;;;2.13;1.27;;;-0.20;99.90;;;;;;4998771;28;20029;-72
2023/12/02 06:45:56;;;;;;;1.40;1.05;;;-0.20;99.90;;;;;;5021692;28;20044;-71
2023/12/02 06:48:22;;;;;;;2.17;1.15;;;-0.20;99.90;;;;;;5026187;28;20106;-71
2023/12/02 06:50:47;;;;;;;3.63;2.28;;;-0.10;99.90;;;;;;5027294;28;20121;-71
2023/12/02 06:53:15;;;;;;;1.75;1.65;;;-0.20;99.90;;;;;;5007062;28;20033;-72
2023/12/02 06:55:42;;;;;;;4.50;1.80;;;-0.20;99.90;;;;;;5015939;28;20030;-72
2023/12/02 06:58:08;;;;;;;2.25;1.88;;;-0.30;99.90;;;;;;5001056;28;20037;-72
2023/12/02 07:00:34;;;;;;;1.23;1.23;;;-0.30;99.90;;;;;;5020236;28;20034;-70
2023/12/02 07:02:59;;;;;;;3.38;2.75;;;-0.30;99.90;;;;;;4998829;28;20021;-71
2023/12/02 07:05:26;;;;;;;3.22;1.70;;;-0.30;99.90;;;;;;5014856;28;20095;-70
2023/12/02 07:07:52;;;;;;;3.10;2.88;;;-0.30;99.90;;;;;;5012570;28;20402;-72
2023/12/02 07:10:18;;;;;;;1.85;1.75;;;-0.30;99.90;;;;;;5004226;28;20017;-71
2023/12/02 07:12:44;;;;;;;3.55;3.22;;;-0.30;99.90;;;;;;5012380;28;20038;-71
2023/12/02 07:15:09;;;;;;;4.22;2.53;;;-0.30;99.90;;;;;;5001989;28;20036;-71
2023/12/02 07:17:35;;;;;;;2.45;1.40;;;-0.30;99.90;;;;;;5017836;28;20037;-71
2023/12/02 07:20:01;;;;;;;4.45;4.05;;;-0.20;99.90;;;;;;5009174;28;20112;-71
2023/12/02 07:22:27;;;;;;;0.65;0.65;;;-0.20;99.90;;;;;;5016044;28;20022;-72
2023/12/02 07:24:53;;;;;;;1.73;1.63;;;-0.20;99.90;;;;;;5005780;28;20042;-72
2023/12/02 07:27:18;;;;;;;3.33;2.35;;;-0.20;99.90;;;;;;5018058;28;20037;-71
2023/12/02 07:29:44;;;;;;;5.13;1.55;;;-0.20;99.90;;;;;;4997687;28;20041;-72
2023/12/02 07:32:10;;;;;;;2.40;2.00;;;-0.20;99.90;;;;;;5022503;28;20578;-72
2023/12/02 07:34:35;;;;;;;5.15;1.80;;;-0.20;99.90;;;;;;5003733;28;20108;-71
2023/12/02 07:37:02;;;;;;;2.38;2.17;;;-0.20;99.90;;;;;;5016478;28;21221;-70
2023/12/02 07:39:28;;;;;;;0.50;0.50;;;-0.20;99.90;;;;;;5007468;28;20033;-70
2023/12/02 07:41:53;;;;;;;2.35;2.05;;;-0.20;99.90;;;;;;5014209;28;20033;-70
2023/12/02 07:44:19;;;;;;;2.58;1.52;;;-0.20;99.90;;;;;;4999387;28;20053;-70
2023/12/02 07:46:44;;;;;;;2.78;1.85;;;-0.20;99.90;;;;;;5024002;28;20033;-72
2023/12/02 07:49:10;;;;;;;8.80;3.45;;;-0.30;99.90;;;;;;5016530;28;21024;-71
2023/12/02 07:51:36;;;;;;;1.10;0.95;;;-0.30;99.90;;;;;;5008022;28;20044;-71
2023/12/02 07:54:02;;;;;;;1.58;1.48;;;-0.30;99.90;;;;;;5023725;28;20091;-71
2023/12/02 07:56:29;;;;;;;1.98;1.88;;;-0.20;99.90;;;;;;5007054;28;20098;-71
2023/12/02 07:58:55;;;;;;;1.45;1.35;;;-0.10;99.90;;;;;;5023608;28;20705;-70
2023/12/02 08:01:21;;;;;;;5.88;1.92;;;-0.10;99.90;;;;;;5009737;28;20398;-71
2023/12/02 08:03:47;;;;;;;1.65;1.02;;;-0.30;99.90;;;;;;5017159;28;20022;-71
2023/12/02 08:06:12;;;;;;;2.90;1.30;;;-0.30;99.90;;;;;;5009136;28;20109;-71
2023/12/02 08:08:38;;;;;;;3.28;2.42;;;-0.30;99.90;;;;;;5020625;28;20498;-71
2023/12/02 08:11:05;;;;;;;2.40;1.70;;;-0.30;99.90;;;;;;5001819;28;20049;-70
2023/12/02 08:13:31;;;;;;;1.48;1.08;;;-0.30;99.90;;;;;;5018196;28;20034;-70
2023/12/02 08:15:57;;;;;;;2.85;2.60;;;-0.20;99.90;;;;;;5003313;28;20041;-71
2023/12/02 08:18:22;;;;;;;1.08;0.85;;;-0.10;99.90;;;;;;5028004;28;20037;-71
2023/12/02 08:20:48;;;;;;;3.17;2.97;;;-0.10;99.90;;;;;;5010109;28;20497;-71
2023/12/02 08:23:14;;;;;;;2.63;1.08;;;0.00;99.90;;;;;;5016481;28;20034;-71
2023/12/02 08:25:40;;;;;;;0.60;0.52;;;-0.10;99.90;;;;;;5007606;28;20081;-71
2023/12/02 08:28:05;;;;;;;2.20;2.00;;;-0.10;99.90;;;;;;5022982;28;20068;-71
2023/12/02 08:30:31;;;;;;;0.52;0.45;;;-0.10;99.90;;;;;;5020685;28;20075;-71
2023/12/02 08:32:57;;;;;;;1.80;1.00;;;-0.10;99.90;;;;;;5010081;28;20489;-70
2023/12/02 08:35:22;;;;;;;1.52;1.38;;;0.00;99.90;;;;;;5018848;28;20620;-72
2023/12/02 08:37:48;;;;;;;1.13;0.75;;;0.00;99.90;;;;;;5006584;28;20700;-71
2023/12/02 08:40:14;;;;;;;6.75;2.05;;;0.00;99.90;;;;;;5020870;28;20061;-71
2023/12/02 08:42:40;;;;;;;5.45;1.50;;;0.20;99.90;;;;;;5002830;28;20034;-71
2023/12/02 08:45:06;;;;;;;4.68;2.40;;;0.30;99.90;;;;;;5017219;28;20037;-71
2023/12/02 08:47:32;;;;;;;0.82;0.80;;;0.10;99.90;;;;;;5007085;28;20100;-72
2023/12/02 08:49:57;;;;;;;1.35;1.08;;;0.10;99.90;;;;;;5014477;28;20046;-71
2023/12/02 08:52:23;;;;;;;2.35;1.30;;;0.10;99.90;;;;;;5016198;28;20111;-72
2023/12/02 08:54:49;;;;;;;1.23;1.15;;;0.10;99.90;;;;;;5020414;28;20044;-70
2023/12/02 08:57:15;;;;;;;4.45;2.47;;;0.10;99.90;;;;;;5003655;28;20029;-71
2023/12/02 08:59:40;;;;;;;1.25;1.15;;;0.00;99.90;;;;;;5019137;28;20041;-70
2023/12/02 09:02:08;;;;;;;3.53;2.55;;;0.00;99.90;;;;;;5006135;28;20037;-70
2023/12/02 09:04:34;;;;;;;0.40;0.40;;;0.10;99.90;;;;;;5015638;28;20037;-71
2023/12/02 09:06:59;;;;;;;0.98;0.98;;;0.10;99.90;;;;;;5003055;28;20048;-72
2023/12/02 09:09:25;;;;;;;1.10;1.02;;;0.30;99.90;;;;;;5012478;28;21375;-72
2023/12/02 09:11:51;;;;;;;1.70;1.60;;;0.40;99.90;;;;;;5011931;28;20413;-72
2023/12/02 09:14:17;;;;;;;1.70;1.35;;;0.40;99.90;;;;;;5000833;28;20040;-72
2023/12/02 09:16:47;;;;;;;6.10;1.35;;;0.40;99.90;;;;;;5013382;28;20037;-71
2023/12/02 09:19:53;;;;;;;3.88;1.65;;;0.30;99.90;;;;;;5005472;28;20029;-72
2023/12/02 09:22:46;;;;;;;1.85;1.75;;;0.20;99.90;;;;;;5013126;28;20188;-72
2023/12/02 09:25:25;;;;;;;1.73;1.42;;;0.30;99.90;;;;;;5029259;28;20029;-71
2023/12/02 09:28:06;;;;;;;5.57;3.03;;;0.40;99.90;;;;;;5027760;28;20033;-72
2023/12/02 09:30:36;;;;;;;10.63;2.40;;;0.40;99.90;;;;;;5022417;28;20032;-71
2023/12/02 09:33:04;;;;;;;2.00;1.77;;;0.30;99.90;;;;;;5007884;28;20052;-71
2023/12/02 09:35:30;;;;;;;4.72;2.25;;;0.10;99.90;;;;;;5017388;28;20029;-71
2023/12/02 09:37:57;;;;;;;2.15;1.02;;;0.10;99.90;;;;;;5005062;28;20099;-71
2023/12/02 09:40:24;;;;;;;0.73;0.73;;;0.20;99.90;;;;;;5020186;28;20026;-72
2023/12/02 09:43:15;;;;;;;3.55;1.65;;;0.20;99.90;;;;;;5014557;28;20083;-71
2023/12/02 09:46:02;;;;;;;3.10;2.05;;;0.10;99.90;;;;;;5014665;28;20428;-71
2023/12/02 09:48:32;;;;;;;3.70;1.55;;;0.10;99.90;;;;;;5005141;28;20529;-71
2023/12/02 09:51:10;;;;;;;3.67;2.08;;;0.20;99.90;;;;;;5013214;28;20123;-71
2023/12/02 09:54:15;;;;;;;1.90;1.73;;;0.20;99.90;;;;;;5005790;28;20052;-71
2023/12/02 09:56:49;;;;;;;1.15;1.02;;;0.20;99.90;;;;;;5012665;28;20041;-71
2023/12/02 09:59:39;;;;;;;1.23;1.15;;;0.40;99.90;;;;;;5005974;28;20294;-71
2023/12/02 10:02:23;;;;;;;2.25;1.70;;;0.50;99.90;;;;;;5017374;28;20036;-72
2023/12/02 10:05:11;;;;;;;1.40;1.05;;;0.50;99.90;;;;;;5001894;28;20030;-72
2023/12/02 10:07:59;;;;;;;0.55;0.55;;;0.50;99.90;;;;;;5014894;28;20040;-72
2023/12/02 10:10:28;;;;;;;2.05;1.05;;;0.60;99.90;;;;;;4998978;28;20029;-72
2023/12/02 10:12:55;;;;;;;1.70;1.48;;;0.60;99.90;;;;;;5014082;28;20142;-71
2023/12/02 10:15:24;;;;;;;1.48;1.38;;;0.50;99.90;;;;;;5001803;28;20125;-71
2023/12/02 10:17:56;;;;;;;1.95;1.27;;;0.50;99.90;;;;;;5010871;28;20161;-72
2023/12/02 10:20:28;;;;;;;2.10;1.65;;;0.50;99.90;;;;;;5003292;28;20034;-73
2023/12/02 10:22:59;;;;;;;1.67;1.55;;;0.60;99.90;;;;;;5016161;28;20033;-72
2023/12/02 10:25:32;;;;;;;2.30;1.33;;;0.60;99.90;;;;;;5005539;28;20037;-71
2023/12/02 10:28:23;;;;;;;4.50;1.85;;;0.40;99.90;;;;;;5018374;28;20022;-72
2023/12/02 10:30:51;;;;;;;1.05;0.88;;;0.60;99.90;;;;;;4999731;28;20061;-72
2023/12/02 10:33:41;;;;;;;1.75;1.35;;;0.40;99.90;;;;;;5024246;28;20050;-75
2023/12/02 10:36:10;;;;;;;1.48;1.38;;;0.40;99.90;;;;;;5019535;28;20512;-72
2023/12/02 10:39:09;;;;;;;2.22;1.95;;;0.60;99.90;;;;;;5016650;28;20034;-72
2023/12/02 10:41:49;;;;;;;2.30;2.13;;;0.90;99.90;;;;;;5001934;28;20503;-72
2023/12/02 10:44:21;;;;;;;1.25;1.08;;;1.20;99.90;;;;;;5012186;28;20065;-72
2023/12/02 10:46:49;;;;;;;3.35;1.83;;;1.40;99.90;;;;;;5006683;28;20417;-73
2023/12/02 10:49:16;;;;;;;2.63;1.90;;;1.40;99.90;;;;;;5013598;28;20505;-72
2023/12/02 10:51:42;;;;;;;5.60;4.22;;;1.40;99.90;;;;;;4998978;28;20065;-72
2023/12/02 10:54:13;;;;;;;1.55;1.45;;;1.30;99.90;;;;;;5020514;28;20383;-72
2023/12/02 10:56:39;;;;;;;2.88;1.35;;;1.00;99.90;;;;;;5000290;28;20107;-72
2023/12/02 10:59:07;;;;;;;2.60;1.95;;;0.90;99.90;;;;;;5017605;28;20032;-72
2023/12/02 11:01:59;;;;;;;4.90;1.67;;;0.80;99.90;;;;;;5009090;28;20068;-72
2023/12/02 11:04:30;;;;;;;0.80;0.73;;;0.70;99.90;;;;;;5017675;28;20030;-71
2023/12/02 11:07:03;;;;;;;1.67;0.73;;;0.70;99.90;;;;;;5006938;28;20063;-71
2023/12/02 11:09:57;;;;;;;3.38;1.25;;;0.70;99.90;;;;;;5017734;28;20131;-71
2023/12/02 11:12:36;;;;;;;3.13;1.25;;;0.80;99.90;;;;;;5008259;28;20032;-71
2023/12/02 11:15:04;;;;;;;4.07;1.02;;;0.80;99.90;;;;;;5014306;28;20040;-71
2023/12/02 11:17:37;;;;;;;3.80;1.52;;;0.90;99.90;;;;;;4999662;28;20048;-71
2023/12/02 11:20:22;;;;;;;2.08;1.98;;;1.00;99.90;;;;;;5011939;28;20037;-71
2023/12/02 11:23:05;;;;;;;2.10;1.90;;;0.90;99.90;;;;;;5002393;28;20033;-71
2023/12/02 11:26:02;;;;;;;4.00;1.73;;;0.90;99.90;;;;;;5020852;28;20037;-71
2023/12/02 11:28:49;;;;;;;2.92;1.95;;;1.00;99.90;;;;;;5009497;28;20151;-71
2023/12/02 11:31:14;;;;;;;1.05;0.90;;;1.10;99.90;;;;;;5019076;28;20029;-71
2023/12/02 11:34:14;;;;;;;2.00;1.90;;;1.20;99.90;;;;;;5010929;28;20045;-72
2023/12/02 11:37:05;;;;;;;0.95;0.95;;;1.50;99.90;;;;;;5015288;28;20581;-72
2023/12/02 11:39:50;;;;;;;3.00;1.33;;;2.00;99.90;;;;;;5026971;28;20079;-71
2023/12/02 11:42:18;;;;;;;0.80;0.80;;;1.90;99.90;;;;;;5004596;28;20462;-71
2023/12/02 11:45:15;;;;;;;2.67;1.17;;;1.90;99.90;;;;;;5012598;28;20038;-72
2023/12/02 11:48:00;;;;;;;3.42;1.17;;;1.80;99.90;;;;;;5003363;28;20037;-72
2023/12/02 11:51:06;;;;;;;0.70;0.70;;;1.40;99.90;;;;;;5012561;28;20079;-71
2023/12/02 11:54:03;;;;;;;1.75;1.65;;;1.50;99.90;;;;;;5007402;28;20504;-71
2023/12/02 11:56:30;;;;;;;4.78;1.75;;;1.50;99.90;;;;;;5016469;28;20834;-71
2023/12/02 11:59:11;;;;;;;0.20;0.20;;;1.50;99.90;;;;;;5009190;28;20143;-71
2023/12/02 12:01:58;;;;;;;1.17;1.08;;;1.40;99.90;;;;;;5017590;28;20029;-71
2023/12/02 12:04:44;;;;;;;1.05;0.93;;;1.30;99.90;;;;;;5017782;28;20041;-70
2023/12/02 12:07:36;;;;;;;0.68;0.65;;;1.30;99.90;;;;;;5028326;28;20120;-71
2023/12/02 12:10:07;;;;;;;1.88;1.75;;;1.50;99.90;;;;;;5011655;28;20041;-71
2023/12/02 12:12:38;;;;;;;2.90;2.03;;;1.80;99.90;;;;;;5018317;28;20029;-70
2023/12/02 12:15:04;;;;;;;3.60;1.70;;;2.10;99.90;;;;;;5007520;28;20034;-71
2023/12/02 12:17:30;;;;;;;1.40;1.30;;;2.10;99.90;;;;;;5011748;28;20116;-72
2023/12/02 12:19:59;;;;;;;5.28;2.08;;;2.20;99.90;;;;;;5004835;28;20068;-71
2023/12/02 12:22:26;;;;;;;3.20;2.90;;;2.50;99.90;;;;;;5019353;28;20049;-71
2023/12/02 12:24:52;;;;;;;2.10;1.50;;;2.50;99.90;;;;;;5001299;28;20087;-72
2023/12/02 12:27:17;;;;;;;7.88;2.72;;;2.60;99.90;;;;;;5018807;28;20029;-71
2023/12/02 12:29:52;;;;;;;2.50;1.95;;;2.80;99.90;;;;;;5007261;28;20489;-71
2023/12/02 12:32:19;;;;;;;2.17;1.35;;;2.80;99.90;;;;;;5020821;28;20079;-71
2023/12/02 12:34:44;;;;;;;2.78;1.63;;;2.40;99.90;;;;;;5009076;28;20747;-71
2023/12/02 12:37:16;;;;;;;0.98;0.98;;;2.40;99.90;;;;;;5013485;28;20064;-71
2023/12/02 12:39:44;;;;;;;1.45;1.35;;;2.20;99.90;;;;;;5005940;28;20470;-70
2023/12/02 12:42:10;;;;;;;2.67;2.33;;;2.10;99.90;;;;;;5018202;28;20120;-72
2023/12/02 12:44:38;;;;;;;2.15;1.52;;;2.20;99.90;;;;;;4996726;28;20039;-72
2023/12/02 12:47:08;;;;;;;4.30;3.30;;;2.10;99.90;;;;;;5021322;28;20033;-72
2023/12/02 12:49:38;;;;;;;4.47;3.63;;;2.00;99.90;;;;;;5003149;28;20049;-72
2023/12/02 12:52:07;;;;;;;2.42;1.38;;;2.00;99.90;;;;;;5017421;28;20106;-72
2023/12/02 12:54:39;;;;;;;3.88;2.03;;;1.90;99.90;;;;;;5024321;28;20025;-73
2023/12/02 12:57:11;;;;;;;2.60;1.95;;;1.90;99.90;;;;;;5024241;28;20048;-73
2023/12/02 12:59:38;;;;;;;2.75;2.17;;;1.80;99.90;;;;;;5008858;28;20069;-72
2023/12/02 13:02:14;;;;;;;2.72;1.95;;;2.10;99.90;;;;;;5018345;28;20879;-72
2023/12/02 13:04:56;;;;;;;1.52;1.13;;;2.30;99.90;;;;;;5001992;28;20038;-73